createdAt,value
2022-12-03T00:01:08.566Z,4.43
2022-12-03T00:03:37.276Z,4.65
2022-12-03T00:06:05.888Z,6.70
2022-12-03T00:08:34.211Z,4.45
2022-12-03T00:11:02.589Z,4.25
2022-12-03T00:13:31.564Z,4.55
2022-12-03T00:16:01.612Z,5.00
2022-12-03T00:20:57.901Z,5.03
2022-12-03T00:23:26.536Z,5.18
2022-12-03T00:25:54.811Z,6.32
2022-12-03T00:28:23.246Z,3.15
2022-12-03T00:30:54.169Z,4.10
2022-12-03T00:33:24.143Z,3.47
2022-12-03T00:35:52.360Z,3.92
2022-12-03T00:38:20.837Z,4.88
2022-12-03T00:40:49.735Z,4.32
2022-12-03T00:43:18.216Z,7.13
2022-12-03T00:45:46.590Z,4.50
2022-12-03T00:48:14.811Z,7.97
2022-12-03T00:50:44.534Z,4.93
2022-12-03T00:53:13.160Z,8.35
2022-12-03T00:55:41.327Z,7.05
2022-12-03T00:58:09.726Z,4.30
2022-12-03T01:00:38.666Z,2.15
2022-12-03T01:03:07.167Z,5.88
2022-12-03T01:05:35.399Z,3.72
2022-12-03T01:08:05.454Z,7.45
2022-12-03T01:10:34.453Z,6.55
2022-12-03T01:13:02.787Z,3.88
2022-12-03T01:15:31.884Z,4.50
2022-12-03T01:18:00.193Z,14.85
2022-12-03T01:20:28.743Z,2.45
2022-12-03T01:22:57.224Z,5.97
2022-12-03T01:25:26.887Z,4.72
2022-12-03T01:27:55.176Z,5.32
2022-12-03T01:30:23.690Z,3.80
2022-12-03T01:32:50.842Z,4.07
2022-12-03T01:35:19.303Z,8.23
2022-12-03T01:37:47.650Z,3.33
2022-12-03T01:40:21.222Z,3.40
2022-12-03T01:42:51.190Z,2.67
2022-12-03T01:45:23.831Z,4.03
2022-12-03T01:47:52.665Z,4.63
2022-12-03T01:50:24.314Z,5.95
2022-12-03T01:52:56.952Z,1.95
2022-12-03T01:55:27.149Z,5.97
2022-12-03T01:57:58.903Z,3.40
2022-12-03T02:00:29.297Z,4.60
2022-12-03T02:02:59.289Z,6.20
2022-12-03T02:07:57.038Z,4.53
2022-12-03T02:10:29.299Z,3.97
2022-12-03T02:13:03.363Z,3.10
2022-12-03T02:15:31.847Z,5.07
2022-12-03T02:18:00.724Z,4.10
2022-12-03T02:20:29.127Z,8.02
2022-12-03T02:23:07.416Z,2.67
2022-12-03T02:25:38.854Z,5.28
2022-12-03T02:28:10.532Z,14.38
2022-12-03T02:30:38.940Z,7.88
2022-12-03T02:33:07.522Z,8.70
2022-12-03T02:35:37.830Z,4.22
2022-12-03T02:38:12.939Z,2.40
2022-12-03T02:40:44.442Z,5.93
2022-12-03T02:43:14.836Z,7.68
2022-12-03T02:45:45.254Z,2.90
2022-12-03T02:48:17.570Z,4.63
2022-12-03T02:50:50.264Z,4.35
2022-12-03T02:53:21.391Z,5.38
2022-12-03T02:55:52.669Z,4.35
2022-12-03T02:58:22.146Z,4.93
2022-12-03T03:00:51.528Z,1.95
2022-12-03T03:03:24.293Z,5.10
2022-12-03T03:05:53.069Z,4.13
2022-12-03T03:08:21.415Z,3.90
2022-12-03T03:10:51.352Z,2.58
2022-12-03T03:15:49.459Z,2.30
2022-12-03T03:18:18.261Z,2.00
2022-12-03T03:20:46.824Z,6.43
2022-12-03T03:23:17.716Z,1.95
2022-12-03T03:25:48.840Z,5.00
2022-12-03T03:28:19.361Z,4.22
2022-12-03T03:30:48.566Z,4.03
2022-12-03T03:33:18.084Z,2.95
2022-12-03T03:35:48.115Z,6.88
2022-12-03T03:40:50.163Z,2.67
2022-12-03T03:43:20.735Z,5.07
2022-12-03T03:45:50.001Z,3.22
2022-12-03T03:48:18.784Z,11.50
2022-12-03T03:50:47.868Z,3.95
2022-12-03T03:53:16.836Z,8.15
2022-12-03T03:55:45.249Z,3.30
2022-12-03T03:58:13.648Z,6.30
2022-12-03T04:00:44.006Z,3.72
2022-12-03T04:03:12.987Z,4.07
2022-12-03T04:05:41.302Z,3.13
2022-12-03T04:08:09.746Z,4.05
2022-12-03T04:10:55.359Z,3.55
2022-12-03T04:13:24.251Z,4.05
2022-12-03T04:15:54.151Z,4.05
2022-12-03T04:18:39.912Z,3.17
2022-12-03T04:21:25.795Z,6.45
2022-12-03T04:23:54.131Z,6.20
2022-12-03T04:26:39.812Z,3.15
2022-12-03T04:29:08.242Z,10.20
2022-12-03T04:31:55.461Z,4.40
2022-12-03T04:34:41.592Z,4.60
2022-12-03T04:37:10.456Z,10.35
2022-12-03T04:39:38.812Z,4.63
2022-12-03T04:42:08.018Z,5.50
2022-12-03T04:44:39.278Z,3.53
2022-12-03T04:47:12.806Z,4.53
2022-12-03T04:49:43.213Z,8.50
2022-12-03T04:52:12.624Z,6.35
2022-12-03T04:54:42.079Z,6.15
2022-12-03T04:57:11.416Z,9.95
2022-12-03T04:59:40.518Z,7.85
2022-12-03T05:02:10.679Z,12.52
2022-12-03T05:04:39.154Z,9.48
2022-12-03T05:07:07.650Z,11.02
2022-12-03T05:09:36.445Z,7.95
2022-12-03T05:12:08.218Z,5.85
2022-12-03T05:14:36.550Z,11.88
2022-12-03T05:17:04.948Z,9.77
2022-12-03T05:19:52.330Z,10.43
2022-12-03T05:22:20.765Z,7.88
2022-12-03T05:24:49.011Z,6.63
2022-12-03T05:27:23.184Z,3.80
2022-12-03T05:29:52.240Z,7.35
2022-12-03T05:32:20.817Z,6.88
2022-12-03T05:34:50.777Z,8.55
2022-12-03T05:37:19.305Z,7.53
2022-12-03T05:39:47.702Z,9.77
2022-12-03T05:42:33.462Z,11.57
2022-12-03T05:45:01.794Z,7.70
2022-12-03T05:47:30.275Z,10.90
2022-12-03T05:49:59.947Z,14.55
2022-12-03T05:52:28.336Z,12.00
2022-12-03T05:54:56.763Z,9.60
2022-12-03T05:57:25.070Z,9.10
2022-12-03T05:59:53.462Z,11.23
2022-12-03T06:02:21.871Z,6.53
2022-12-03T06:04:50.508Z,5.97
2022-12-03T06:07:20.404Z,6.22
2022-12-03T06:09:48.709Z,11.18
2022-12-03T06:12:16.924Z,13.75
2022-12-03T06:14:45.306Z,10.90
2022-12-03T06:17:13.538Z,10.32
2022-12-03T06:19:41.857Z,17.98
2022-12-03T06:22:10.196Z,9.00
2022-12-03T06:24:40.187Z,6.85
2022-12-03T06:29:36.901Z,12.18
2022-12-03T06:32:06.167Z,6.65
2022-12-03T06:34:34.879Z,13.60
2022-12-03T06:37:03.452Z,11.30
2022-12-03T06:39:31.890Z,11.75
2022-12-03T06:42:01.548Z,7.00
2022-12-03T06:44:30.001Z,16.08
2022-12-03T06:46:58.340Z,15.90
2022-12-03T06:49:26.880Z,19.42
2022-12-03T06:51:56.076Z,19.40
2022-12-03T06:54:24.475Z,18.10
2022-12-03T06:56:52.998Z,16.63
2022-12-03T06:59:23.191Z,16.55
2022-12-03T07:01:51.745Z,15.13
2022-12-03T07:04:20.194Z,14.40
2022-12-03T07:06:48.712Z,19.30
2022-12-03T07:09:17.778Z,18.13
2022-12-03T07:11:46.067Z,10.68
2022-12-03T07:14:14.446Z,17.17
2022-12-03T07:16:44.198Z,12.07
2022-12-03T07:19:13.123Z,15.15
2022-12-03T07:21:42.239Z,18.98
2022-12-03T07:24:10.613Z,17.75
2022-12-03T07:26:39.851Z,13.73
2022-12-03T07:29:08.310Z,15.20
2022-12-03T07:31:36.657Z,14.68
2022-12-03T07:34:06.412Z,13.05
2022-12-03T07:36:34.869Z,14.30
2022-12-03T07:39:03.268Z,14.90
2022-12-03T07:41:31.764Z,15.82
2022-12-03T07:44:00.414Z,20.08
2022-12-03T07:46:29.035Z,15.85
2022-12-03T07:48:57.402Z,17.63
2022-12-03T07:51:31.934Z,12.82
2022-12-03T07:54:00.824Z,11.73
2022-12-03T07:56:29.124Z,14.73
2022-12-03T07:58:57.732Z,11.38
2022-12-03T08:01:26.180Z,14.43
2022-12-03T08:03:54.791Z,5.13
2022-12-03T08:06:23.113Z,23.17
2022-12-03T08:08:52.920Z,15.45
2022-12-03T08:13:49.858Z,13.55
2022-12-03T08:16:20.988Z,15.70
2022-12-03T08:18:50.908Z,9.35
2022-12-03T08:21:21.522Z,7.80
2022-12-03T08:23:50.028Z,11.52
2022-12-03T08:26:23.488Z,6.35
2022-12-03T08:28:52.152Z,12.82
2022-12-03T08:31:27.924Z,14.25
2022-12-03T08:34:14.933Z,9.02
2022-12-03T08:36:43.293Z,21.23
2022-12-03T08:39:27.922Z,15.07
2022-12-03T08:45:49.060Z,18.52
2022-12-03T08:48:27.501Z,13.73
2022-12-03T08:50:57.406Z,20.92
2022-12-03T08:53:59.733Z,15.65
2022-12-03T08:56:33.239Z,23.13
2022-12-03T08:59:25.698Z,10.60
2022-12-03T09:01:56.806Z,15.45
2022-12-03T09:04:32.528Z,16.83
2022-12-03T09:07:01.542Z,24.75
2022-12-03T09:09:32.283Z,20.00
2022-12-03T09:12:02.345Z,21.38
2022-12-03T09:14:51.115Z,18.58
2022-12-03T09:17:20.471Z,11.23
2022-12-03T09:19:57.170Z,6.50
2022-12-03T09:22:27.299Z,18.77
2022-12-03T09:24:56.005Z,18.35
2022-12-03T09:27:24.894Z,11.70
2022-12-03T09:29:55.503Z,18.27
2022-12-03T09:32:24.312Z,19.75
2022-12-03T09:34:53.082Z,20.65
2022-12-03T09:37:24.485Z,17.85
2022-12-03T09:39:52.936Z,21.38
2022-12-03T09:42:21.468Z,14.57
2022-12-03T09:44:49.937Z,22.13
2022-12-03T09:47:20.155Z,16.80
2022-12-03T09:49:49.080Z,7.40
2022-12-03T09:52:34.319Z,12.30
2022-12-03T09:55:45.090Z,30.35
2022-12-03T13:27:10.577Z,7.38
2022-12-03T13:29:41.620Z,8.27
2022-12-03T13:32:50.506Z,13.25
2022-12-03T13:35:28.318Z,12.77
2022-12-03T13:37:57.065Z,14.07
2022-12-03T13:40:30.750Z,13.60
2022-12-03T13:43:01.029Z,14.75
2022-12-03T13:45:37.836Z,12.48
2022-12-03T13:48:20.073Z,13.77
2022-12-03T13:50:48.451Z,13.73
2022-12-03T13:53:23.128Z,17.85
2022-12-03T13:55:53.512Z,11.88
2022-12-03T13:58:23.675Z,10.90
2022-12-03T14:00:55.183Z,9.43
2022-12-03T14:03:37.746Z,14.52
2022-12-03T14:06:07.715Z,20.60
2022-12-03T14:08:38.038Z,17.00
2022-12-03T14:11:06.807Z,22.65
2022-12-03T14:13:46.850Z,15.55
2022-12-03T14:16:17.683Z,15.40
2022-12-03T14:18:46.297Z,19.58
2022-12-03T14:21:27.025Z,16.13
2022-12-03T14:26:55.984Z,15.05
2022-12-03T14:29:28.236Z,16.45
2022-12-03T14:31:57.368Z,16.25
2022-12-03T14:34:26.297Z,16.10
2022-12-03T14:36:55.282Z,10.45
2022-12-03T14:39:23.776Z,19.15
2022-12-03T14:42:12.782Z,16.25
2022-12-03T14:44:42.843Z,16.27
2022-12-03T14:49:39.720Z,13.50
2022-12-03T14:52:12.190Z,11.23
2022-12-03T14:54:42.756Z,15.65
2022-12-03T14:57:12.955Z,15.07
2022-12-03T14:59:44.287Z,13.90
2022-12-03T15:02:15.941Z,9.48
2022-12-03T15:04:44.481Z,14.35
2022-12-03T15:07:12.949Z,19.52
2022-12-03T15:09:42.005Z,15.23
2022-12-03T15:12:10.646Z,12.77
2022-12-03T15:14:39.187Z,10.23
2022-12-03T15:17:10.928Z,12.10
2022-12-03T15:19:39.417Z,5.55
2022-12-03T15:22:07.567Z,16.00
2022-12-03T15:24:35.805Z,10.30
2022-12-03T15:27:03.991Z,20.55
2022-12-03T15:29:32.948Z,13.43
2022-12-03T15:32:03.209Z,16.00
2022-12-03T15:34:58.433Z,15.98
2022-12-03T15:43:00.791Z,9.77
2022-12-03T15:45:29.475Z,16.00
2022-12-03T15:47:57.739Z,17.92
2022-12-03T15:50:27.479Z,17.92
2022-12-03T16:01:14.372Z,15.70
2022-12-03T16:03:42.709Z,17.65
2022-12-03T16:06:12.666Z,17.75
2022-12-03T16:08:41.034Z,19.95
2022-12-03T16:11:09.217Z,15.45
2022-12-03T16:13:37.523Z,15.10
2022-12-03T16:16:06.389Z,11.55
2022-12-03T16:18:34.849Z,14.80
2022-12-03T16:21:03.082Z,13.52
2022-12-03T16:23:32.764Z,10.63
2022-12-03T16:26:00.997Z,11.73
2022-12-03T16:28:29.300Z,9.15
2022-12-03T16:30:57.572Z,11.70
2022-12-03T16:33:28.064Z,14.07
2022-12-03T16:35:56.554Z,11.98
2022-12-03T16:38:24.817Z,12.45
2022-12-03T16:43:40.241Z,11.05
2022-12-03T16:46:25.582Z,11.15
2022-12-03T16:48:55.638Z,9.25
2022-12-03T16:51:24.042Z,9.93
2022-12-03T16:53:52.220Z,5.95
2022-12-03T16:56:22.010Z,9.43
2022-12-03T16:58:50.132Z,9.82
2022-12-03T17:01:18.497Z,10.00
2022-12-03T17:03:46.953Z,10.35
2022-12-03T17:06:15.107Z,6.63
2022-12-03T17:08:48.745Z,10.10
2022-12-03T17:11:17.962Z,11.35
2022-12-03T17:13:47.756Z,9.02
2022-12-03T17:16:16.594Z,10.50
2022-12-03T17:18:45.169Z,10.30
2022-12-03T17:21:13.798Z,6.63
2022-12-03T17:23:42.149Z,8.40
2022-12-03T17:26:10.796Z,10.27
2022-12-03T17:28:39.082Z,9.40
2022-12-03T17:31:09.363Z,10.70
2022-12-03T17:33:38.179Z,9.30
2022-12-03T17:36:07.414Z,7.47
2022-12-03T17:38:39.315Z,11.85
2022-12-03T17:41:08.932Z,8.05
2022-12-03T17:43:37.641Z,8.13
2022-12-03T17:46:07.483Z,4.53
2022-12-03T17:53:33.999Z,11.95
2022-12-03T17:56:02.565Z,8.48
2022-12-03T17:58:31.252Z,9.93
2022-12-03T18:01:02.876Z,9.35
2022-12-03T18:03:32.019Z,10.98
2022-12-03T18:06:02.002Z,8.23
2022-12-03T18:08:31.067Z,10.55
2022-12-03T18:10:59.728Z,6.05
2022-12-03T18:13:28.309Z,8.48
2022-12-03T18:15:57.987Z,11.48
2022-12-03T18:18:27.661Z,3.55
2022-12-03T18:21:01.026Z,7.15
2022-12-03T18:23:31.062Z,10.00
2022-12-03T18:41:30.780Z,8.25
2022-12-03T18:43:59.269Z,7.47
2022-12-03T18:46:52.537Z,9.98
2022-12-03T18:49:17.243Z,9.65
2022-12-03T18:51:45.569Z,8.95
2022-12-03T18:54:15.550Z,10.05
2022-12-03T18:56:45.564Z,10.18
2022-12-03T18:59:14.530Z,5.68
2022-12-03T19:01:44.669Z,11.05
2022-12-03T20:03:10.564Z,12.73
2022-12-03T20:05:40.028Z,11.90
2022-12-03T20:08:09.253Z,13.43
2022-12-03T20:10:38.451Z,8.50
2022-12-03T20:13:07.414Z,14.38
2022-12-03T20:15:39.973Z,11.27
2022-12-03T20:18:14.245Z,5.28
2022-12-03T20:20:47.238Z,13.85
2022-12-03T20:23:15.980Z,11.70
2022-12-03T20:25:44.527Z,13.75
2022-12-03T20:28:13.390Z,11.73
2022-12-03T20:30:50.134Z,14.38
2022-12-03T20:33:20.955Z,12.82
2022-12-03T20:35:53.173Z,14.73
2022-12-03T20:38:24.504Z,10.70
2022-12-03T20:40:53.947Z,7.78
2022-12-03T20:43:23.093Z,11.27
2022-12-03T20:45:55.921Z,11.30
2022-12-03T20:50:59.583Z,8.15
2022-12-03T20:53:29.790Z,12.40
2022-12-03T20:55:59.234Z,11.98
2022-12-03T20:58:32.157Z,12.77
2022-12-03T21:01:15.310Z,7.40
2022-12-03T21:03:47.481Z,12.90
2022-12-03T21:06:16.831Z,17.83
2022-12-03T21:08:46.256Z,8.30
2022-12-03T21:11:17.111Z,7.85
2022-12-03T21:13:46.621Z,16.20
2022-12-03T21:16:17.043Z,11.32
2022-12-03T21:18:47.929Z,13.05
2022-12-03T21:21:18.251Z,8.57
2022-12-03T21:23:46.805Z,13.85
2022-12-03T21:26:18.457Z,12.20
2022-12-03T21:28:50.401Z,13.48
2022-12-03T21:31:21.071Z,10.75
2022-12-03T21:33:52.396Z,7.95
2022-12-03T21:36:20.901Z,13.18
2022-12-03T21:38:49.896Z,15.77
2022-12-03T21:41:19.010Z,9.48
2022-12-03T21:43:47.916Z,16.13
2022-12-03T21:47:11.454Z,9.95
2022-12-03T21:49:09.006Z,6.65
2022-12-03T21:51:38.220Z,17.45
2022-12-03T21:54:07.025Z,9.82
2022-12-03T21:56:35.622Z,14.88
2022-12-03T21:59:04.672Z,11.52
2022-12-03T22:01:33.472Z,8.90
2022-12-03T22:04:02.797Z,11.00
2022-12-03T22:06:34.901Z,4.97
2022-12-03T22:11:32.563Z,15.75
2022-12-03T22:14:00.959Z,11.18
2022-12-03T22:16:29.621Z,10.95
2022-12-03T22:18:58.311Z,14.23
2022-12-03T22:21:26.771Z,15.07
2022-12-03T22:23:57.534Z,14.45
2022-12-03T22:26:26.154Z,17.27
2022-12-03T22:28:54.545Z,11.60
2022-12-03T22:31:22.987Z,14.38
2022-12-03T22:33:51.378Z,9.80
2022-12-03T22:36:21.765Z,13.10
2022-12-03T22:38:50.774Z,12.77
2022-12-03T22:41:21.468Z,14.75
2022-12-03T22:43:50.907Z,14.63
2022-12-03T22:46:19.277Z,13.55
2022-12-03T22:48:48.930Z,12.20
2022-12-03T22:51:19.786Z,11.52
2022-12-03T22:53:48.524Z,10.38
2022-12-03T22:56:17.352Z,12.60
2022-12-03T22:58:47.270Z,19.67
2022-12-03T23:03:49.967Z,17.50
2022-12-03T23:06:19.036Z,11.70
2022-12-03T23:08:47.746Z,14.55
2022-12-03T23:11:17.053Z,16.98
2022-12-03T23:13:47.071Z,7.78
2022-12-03T23:16:17.165Z,12.38
2022-12-03T23:18:45.845Z,19.02
2022-12-03T23:21:17.260Z,15.40
2022-12-03T23:23:46.287Z,17.85
2022-12-03T23:26:15.757Z,8.88
2022-12-03T23:28:47.293Z,11.35
2022-12-03T23:31:18.971Z,14.63
2022-12-03T23:33:47.682Z,13.35
2022-12-03T23:36:16.653Z,5.88
2022-12-03T23:38:45.045Z,11.18
2022-12-03T23:41:15.761Z,14.93
2022-12-03T23:43:44.551Z,14.80
2022-12-03T23:46:18.684Z,16.52
2022-12-03T23:48:47.243Z,18.70
2022-12-03T23:51:17.407Z,19.58
2022-12-03T23:53:46.183Z,10.48
2022-12-03T23:56:17.113Z,20.70
2022-12-03T23:58:45.803Z,18.35
